Time;durP1;ratioP1;P1;durP2;ratioP2;P2;SDS_P1;SDS_P2;PMS_P1;PMS_P2;Temp;Humidity;BMP_temperature;BMP_pressure;BME280_temperature;BME280_humidity;BME280_pressure;Samples;Min_cycle;Max_cycle;Signal;HPM_P1;HPM_P2
2023/12/02 00:00:09;;;;;;;22.93;17.73;;;;;;;;;;2611012;54;21020;-72
2023/12/02 00:02:35;;;;;;;26.20;17.67;;;;;;;;;;2610343;47;20963;-73
2023/12/02 00:05:01;;;;;;;23.30;17.50;;;;;;;;;;2610990;39;20908;-73
2023/12/02 00:07:27;;;;;;;24.63;16.30;;;;;;;;;;2611004;54;20419;-72
2023/12/02 00:09:53;;;;;;;18.20;13.37;;;;;;;;;;2610499;54;20411;-72
2023/12/02 00:12:19;;;;;;;19.73;15.40;;;;;;;;;;2610533;39;20903;-72
2023/12/02 00:14:45;;;;;;;20.70;15.47;;;;;;;;;;2611189;54;20391;-73
2023/12/02 00:17:11;;;;;;;18.73;15.10;;;;;;;;;;2610024;47;20406;-72
2023/12/02 00:19:38;;;;;;;19.67;16.03;;;;;;;;;;2610989;39;20771;-72
2023/12/02 00:22:06;;;;;;;21.67;15.40;;;;;;;;;;2611004;54;20478;-72
2023/12/02 00:24:32;;;;;;;21.07;16.90;;;;;;;;;;2610589;47;20520;-78
2023/12/02 00:26:58;;;;;;;20.23;16.47;;;;;;;;;;2611086;54;21034;-78
2023/12/02 00:29:24;;;;;;;22.67;17.27;;;;;;;;;;2610649;54;20418;-77
2023/12/02 00:31:50;;;;;;;21.83;15.47;;;;;;;;;;2611367;39;21672;-77
2023/12/02 00:34:17;;;;;;;23.87;17.67;;;;;;;;;;2611212;54;20407;-77
2023/12/02 00:36:46;;;;;;;23.00;17.13;;;;;;;;;;2609391;54;20426;-79
2023/12/02 00:39:12;;;;;;;19.60;16.53;;;;;;;;;;2611145;54;20426;-78
2023/12/02 00:41:39;;;;;;;25.30;18.60;;;;;;;;;;2611389;54;20439;-78
2023/12/02 00:44:05;;;;;;;19.90;14.90;;;;;;;;;;2610317;54;20434;-80
2023/12/02 00:46:32;;;;;;;21.10;16.67;;;;;;;;;;2612193;54;20396;-80
2023/12/02 00:48:58;;;;;;;28.70;18.63;;;;;;;;;;2611348;54;20414;-80
2023/12/02 00:51:24;;;;;;;21.97;15.87;;;;;;;;;;2611452;54;20383;-80
2023/12/02 00:53:50;;;;;;;22.10;15.80;;;;;;;;;;2611625;47;20423;-78
2023/12/02 00:56:17;;;;;;;20.00;17.10;;;;;;;;;;2611309;47;20435;-80
2023/12/02 00:58:43;;;;;;;22.73;14.03;;;;;;;;;;2611794;54;20437;-82
2023/12/02 01:01:09;;;;;;;19.00;15.77;;;;;;;;;;2610915;54;20403;-81
2023/12/02 01:03:35;;;;;;;19.33;15.53;;;;;;;;;;2613344;39;21165;-80
2023/12/02 01:06:02;;;;;;;19.60;15.00;;;;;;;;;;2612536;54;20395;-81
2023/12/02 01:08:29;;;;;;;19.67;14.37;;;;;;;;;;2613530;47;20412;-82
2023/12/02 01:10:55;;;;;;;21.30;15.40;;;;;;;;;;2611463;54;20502;-81
2023/12/02 01:13:21;;;;;;;17.57;14.37;;;;;;;;;;2611981;54;20403;-82
2023/12/02 01:15:47;;;;;;;22.30;15.63;;;;;;;;;;2612834;54;20398;-80
2023/12/02 01:18:13;;;;;;;17.50;14.53;;;;;;;;;;2612562;54;20470;-80
2023/12/02 01:20:39;;;;;;;19.77;15.13;;;;;;;;;;2613167;39;20517;-82
2023/12/02 01:23:05;;;;;;;16.67;13.93;;;;;;;;;;2610529;54;21006;-82
2023/12/02 01:25:31;;;;;;;14.30;12.80;;;;;;;;;;2612186;54;20411;-80
2023/12/02 01:27:57;;;;;;;18.07;13.43;;;;;;;;;;2610434;49;20450;-81
2023/12/02 01:30:25;;;;;;;21.93;14.10;;;;;;;;;;2610925;54;20399;-80
2023/12/02 01:32:51;;;;;;;18.90;16.80;;;;;;;;;;2610493;47;20418;-80
2023/12/02 01:35:17;;;;;;;21.03;16.97;;;;;;;;;;2612284;39;20850;-78
2023/12/02 01:37:43;;;;;;;23.77;18.07;;;;;;;;;;2611356;39;20800;-77
2023/12/02 01:40:11;;;;;;;24.27;17.23;;;;;;;;;;2610207;39;20799;-78
2023/12/02 01:42:37;;;;;;;21.00;16.87;;;;;;;;;;2610866;54;20390;-78
2023/12/02 01:45:03;;;;;;;27.73;17.83;;;;;;;;;;2611202;39;20812;-79
2023/12/02 01:47:29;;;;;;;17.70;15.80;;;;;;;;;;2610686;54;20991;-78
2023/12/02 01:49:56;;;;;;;15.30;12.73;;;;;;;;;;2611940;39;20778;-77
2023/12/02 01:52:22;;;;;;;15.90;13.60;;;;;;;;;;2610186;47;20439;-77
2023/12/02 01:54:48;;;;;;;19.60;15.67;;;;;;;;;;2610598;54;20447;-77
2023/12/02 01:57:14;;;;;;;19.57;14.63;;;;;;;;;;2610418;39;20837;-78
2023/12/02 01:59:53;;;;;;;15.87;13.23;;;;;;;;;;2611374;54;20398;-78
2023/12/02 02:02:19;;;;;;;16.43;13.80;;;;;;;;;;2610614;31;20949;-77
2023/12/02 02:04:45;;;;;;;15.33;12.50;;;;;;;;;;2611240;54;20392;-78
2023/12/02 02:07:11;;;;;;;17.77;13.63;;;;;;;;;;2610175;54;20399;-77
2023/12/02 02:09:50;;;;;;;22.33;15.67;;;;;;;;;;2610317;54;20370;-77
2023/12/02 02:12:16;;;;;;;21.63;16.03;;;;;;;;;;2610247;47;20475;-77
2023/12/02 02:14:42;;;;;;;19.30;15.50;;;;;;;;;;2610268;54;20390;-79
2023/12/02 02:17:09;;;;;;;20.00;15.63;;;;;;;;;;2610909;54;20409;-78
2023/12/02 02:19:35;;;;;;;21.40;14.63;;;;;;;;;;2610896;54;20426;-78
2023/12/02 02:22:01;;;;;;;19.23;14.43;;;;;;;;;;2610528;47;20420;-78
2023/12/02 02:24:27;;;;;;;20.07;17.00;;;;;;;;;;2611226;39;20893;-78
2023/12/02 02:26:53;;;;;;;29.47;18.60;;;;;;;;;;2611671;54;20410;-78
2023/12/02 02:29:19;;;;;;;19.53;16.73;;;;;;;;;;2611896;31;20824;-78
2023/12/02 02:31:45;;;;;;;21.30;15.57;;;;;;;;;;2611229;31;20914;-78
2023/12/02 02:34:12;;;;;;;21.07;14.83;;;;;;;;;;2611451;54;20519;-78
2023/12/02 02:36:38;;;;;;;18.70;15.17;;;;;;;;;;2610111;54;20433;-77
2023/12/02 02:39:07;;;;;;;17.57;13.43;;;;;;;;;;2610716;54;20442;-78
2023/12/02 02:41:33;;;;;;;20.37;14.10;;;;;;;;;;2610621;54;20426;-79
2023/12/02 02:43:59;;;;;;;17.77;14.60;;;;;;;;;;2611166;54;20416;-72
2023/12/02 02:46:25;;;;;;;21.63;14.57;;;;;;;;;;2609368;54;20522;-73
2023/12/02 02:48:51;;;;;;;15.83;13.53;;;;;;;;;;2609784;54;21136;-72
2023/12/02 02:51:17;;;;;;;17.83;14.13;;;;;;;;;;2611091;39;20829;-73
2023/12/02 02:53:43;;;;;;;16.80;13.77;;;;;;;;;;2611735;31;20874;-73
2023/12/02 02:56:09;;;;;;;18.03;13.90;;;;;;;;;;2611198;31;20893;-73
2023/12/02 02:58:36;;;;;;;13.47;12.00;;;;;;;;;;2610121;39;20884;-72
2023/12/02 03:01:05;;;;;;;17.10;12.40;;;;;;;;;;2609829;54;20413;-73
2023/12/02 03:03:32;;;;;;;20.57;13.53;;;;;;;;;;2610041;54;20419;-72
2023/12/02 03:05:58;;;;;;;20.87;15.40;;;;;;;;;;2610171;47;20472;-78
2023/12/02 03:08:24;;;;;;;22.10;15.73;;;;;;;;;;2611483;54;20494;-77
2023/12/02 03:10:50;;;;;;;20.33;15.33;;;;;;;;;;2611145;39;20847;-77
2023/12/02 03:13:17;;;;;;;23.20;15.80;;;;;;;;;;2610216;54;20391;-77
2023/12/02 03:15:43;;;;;;;16.87;13.60;;;;;;;;;;2610344;54;20431;-77
2023/12/02 03:18:09;;;;;;;21.83;14.10;;;;;;;;;;2610545;54;20474;-78
2023/12/02 03:20:35;;;;;;;18.57;15.10;;;;;;;;;;2610777;54;20434;-78
2023/12/02 03:23:01;;;;;;;19.30;14.63;;;;;;;;;;2610953;54;20388;-77
2023/12/02 03:25:27;;;;;;;16.33;14.23;;;;;;;;;;2610424;54;23186;-79
2023/12/02 03:27:53;;;;;;;18.53;13.63;;;;;;;;;;2610926;54;20409;-77
2023/12/02 03:30:19;;;;;;;17.00;13.60;;;;;;;;;;2610384;46;20430;-77
2023/12/02 03:32:45;;;;;;;17.17;13.00;;;;;;;;;;2610680;39;21308;-77
2023/12/02 03:35:11;;;;;;;19.33;14.10;;;;;;;;;;2611089;54;20442;-78
2023/12/02 03:37:37;;;;;;;21.17;14.87;;;;;;;;;;2611564;54;20426;-77
2023/12/02 03:40:04;;;;;;;17.70;14.67;;;;;;;;;;2611072;31;20929;-78
2023/12/02 03:42:30;;;;;;;24.03;14.70;;;;;;;;;;2612106;54;20403;-77
2023/12/02 03:44:57;;;;;;;23.77;16.63;;;;;;;;;;2611895;54;20435;-78
2023/12/02 03:47:23;;;;;;;26.93;16.80;;;;;;;;;;2612383;54;20427;-78
2023/12/02 03:49:49;;;;;;;24.27;17.13;;;;;;;;;;2611750;54;20419;-77
2023/12/02 03:52:15;;;;;;;23.03;18.07;;;;;;;;;;2611354;54;20392;-79
2023/12/02 03:54:41;;;;;;;18.27;15.40;;;;;;;;;;2612657;39;21190;-77
2023/12/02 03:57:07;;;;;;;21.00;16.30;;;;;;;;;;2611400;54;21252;-78
2023/12/02 03:59:33;;;;;;;22.60;15.47;;;;;;;;;;2611598;54;20394;-77
2023/12/02 04:01:59;;;;;;;23.90;15.30;;;;;;;;;;2611485;54;20398;-78
2023/12/02 04:04:26;;;;;;;18.77;15.37;;;;;;;;;;2611260;54;20407;-78
2023/12/02 04:06:53;;;;;;;22.13;15.30;;;;;;;;;;2611418;47;20510;-78
2023/12/02 04:09:19;;;;;;;20.90;14.50;;;;;;;;;;2611356;47;20420;-78
2023/12/02 04:11:46;;;;;;;20.47;16.77;;;;;;;;;;2611057;54;20402;-76
2023/12/02 04:14:12;;;;;;;22.47;14.70;;;;;;;;;;2612553;39;20784;-80
2023/12/02 04:16:41;;;;;;;24.80;15.53;;;;;;;;;;2611484;46;20411;-80
2023/12/02 04:19:08;;;;;;;22.53;16.57;;;;;;;;;;2611495;54;20453;-80
2023/12/02 04:21:36;;;;;;;21.40;14.43;;;;;;;;;;2610369;54;20406;-81
2023/12/02 04:24:02;;;;;;;26.37;16.20;;;;;;;;;;2610791;54;20422;-80
2023/12/02 04:26:29;;;;;;;22.20;15.93;;;;;;;;;;2612174;47;20523;-81
2023/12/02 04:28:55;;;;;;;20.17;14.40;;;;;;;;;;2610923;54;20443;-79
2023/12/02 04:31:21;;;;;;;14.77;12.40;;;;;;;;;;2610531;47;20418;-80
2023/12/02 04:33:48;;;;;;;17.00;13.00;;;;;;;;;;2610390;39;20780;-80
2023/12/02 04:36:14;;;;;;;19.47;12.67;;;;;;;;;;2610907;39;20877;-79
2023/12/02 04:38:41;;;;;;;17.80;13.70;;;;;;;;;;2612020;39;20804;-80
2023/12/02 04:41:07;;;;;;;23.73;15.50;;;;;;;;;;2611274;54;20454;-79
2023/12/02 04:43:33;;;;;;;19.20;14.33;;;;;;;;;;2610820;54;20988;-81
2023/12/02 04:46:00;;;;;;;21.77;14.70;;;;;;;;;;2611278;54;20395;-80
2023/12/02 04:48:27;;;;;;;16.20;13.63;;;;;;;;;;2611584;54;20522;-80
2023/12/02 04:50:53;;;;;;;16.60;13.70;;;;;;;;;;2612228;54;20431;-79
2023/12/02 04:53:19;;;;;;;17.20;15.30;;;;;;;;;;2611072;54;20395;-78
2023/12/02 04:55:46;;;;;;;14.93;13.17;;;;;;;;;;2610941;47;20418;-79
2023/12/02 04:58:12;;;;;;;18.87;13.17;;;;;;;;;;2611401;47;20407;-80
2023/12/02 05:00:38;;;;;;;20.20;15.07;;;;;;;;;;2611203;54;20999;-81
2023/12/02 05:03:05;;;;;;;20.67;15.00;;;;;;;;;;2610969;54;20399;-80
2023/12/02 05:05:32;;;;;;;20.20;14.57;;;;;;;;;;2610611;46;20498;-74
2023/12/02 05:07:58;;;;;;;22.37;15.30;;;;;;;;;;2610810;39;20827;-74
2023/12/02 05:10:24;;;;;;;18.17;15.83;;;;;;;;;;2610813;54;20439;-75
2023/12/02 05:12:50;;;;;;;16.80;14.20;;;;;;;;;;2610892;54;20399;-74
2023/12/02 05:15:16;;;;;;;14.70;12.37;;;;;;;;;;2610042;54;20410;-74
2023/12/02 05:17:45;;;;;;;21.67;14.77;;;;;;;;;;2611146;54;20407;-74
2023/12/02 05:20:13;;;;;;;19.83;14.83;;;;;;;;;;2609854;54;20428;-73
2023/12/02 05:22:39;;;;;;;19.07;14.57;;;;;;;;;;2610133;54;20411;-73
2023/12/02 05:25:06;;;;;;;18.23;13.40;;;;;;;;;;2611342;54;20419;-83
2023/12/02 05:27:32;;;;;;;17.80;14.60;;;;;;;;;;2611803;47;20454;-82
2023/12/02 05:29:58;;;;;;;22.27;14.63;;;;;;;;;;2612347;54;20458;-83
2023/12/02 05:32:25;;;;;;;22.00;15.20;;;;;;;;;;2613465;39;20785;-82
2023/12/02 05:34:51;;;;;;;18.57;13.50;;;;;;;;;;2612131;46;20449;-83
2023/12/02 05:37:17;;;;;;;16.40;13.73;;;;;;;;;;2612311;47;20594;-84
2023/12/02 05:39:43;;;;;;;20.50;13.90;;;;;;;;;;2612742;54;20447;-83
2023/12/02 05:42:09;;;;;;;15.53;13.93;;;;;;;;;;2612737;54;20453;-83
2023/12/02 05:44:35;;;;;;;17.10;13.17;;;;;;;;;;2613345;54;20419;-83
2023/12/02 05:47:01;;;;;;;20.33;15.47;;;;;;;;;;2613061;39;20852;-83
2023/12/02 05:49:27;;;;;;;16.73;12.60;;;;;;;;;;2612744;46;20426;-83
2023/12/02 05:51:53;;;;;;;20.33;14.23;;;;;;;;;;2613154;54;20390;-83
2023/12/02 05:54:19;;;;;;;17.27;14.00;;;;;;;;;;2613911;54;20426;-82
2023/12/02 05:56:45;;;;;;;16.50;13.77;;;;;;;;;;2612412;39;21060;-81
2023/12/02 05:59:11;;;;;;;16.03;12.40;;;;;;;;;;2613616;54;20431;-84
2023/12/02 06:01:37;;;;;;;15.77;12.87;;;;;;;;;;2612219;54;20374;-85
2023/12/02 06:04:04;;;;;;;15.30;13.43;;;;;;;;;;2612627;54;20438;-84
2023/12/02 06:06:30;;;;;;;22.60;14.57;;;;;;;;;;2612338;47;20690;-84
2023/12/02 06:08:56;;;;;;;15.17;13.50;;;;;;;;;;2613274;54;20402;-83
2023/12/02 06:11:22;;;;;;;17.23;13.70;;;;;;;;;;2613286;47;20486;-84
2023/12/02 06:13:48;;;;;;;16.30;13.03;;;;;;;;;;2613782;54;20432;-75
2023/12/02 06:16:14;;;;;;;16.30;12.70;;;;;;;;;;2611644;54;20972;-80
2023/12/02 06:18:40;;;;;;;18.87;13.80;;;;;;;;;;2610445;39;20814;-80
2023/12/02 06:21:06;;;;;;;19.13;13.57;;;;;;;;;;2612015;39;20796;-78
2023/12/02 06:23:33;;;;;;;14.83;13.33;;;;;;;;;;2610795;54;20409;-80
2023/12/02 06:25:59;;;;;;;15.40;12.83;;;;;;;;;;2610876;47;20459;-79
2023/12/02 06:28:25;;;;;;;16.27;12.60;;;;;;;;;;2611322;39;21127;-80
2023/12/02 06:30:51;;;;;;;15.97;13.00;;;;;;;;;;2610506;54;20485;-80
2023/12/02 06:33:17;;;;;;;17.07;13.57;;;;;;;;;;2610821;54;20415;-80
2023/12/02 06:35:44;;;;;;;17.40;13.47;;;;;;;;;;2610191;54;20948;-80
2023/12/02 06:38:10;;;;;;;15.37;13.30;;;;;;;;;;2610441;48;22353;-82
2023/12/02 06:40:36;;;;;;;14.47;12.90;;;;;;;;;;2611825;54;21085;-80
2023/12/02 06:43:02;;;;;;;15.37;13.73;;;;;;;;;;2610934;39;21119;-81
2023/12/02 06:45:28;;;;;;;15.47;12.63;;;;;;;;;;2610567;47;20577;-79
2023/12/02 06:47:54;;;;;;;15.70;11.77;;;;;;;;;;2611653;54;20415;-79
2023/12/02 06:50:22;;;;;;;16.50;12.73;;;;;;;;;;2610264;47;20439;-80
2023/12/02 06:52:48;;;;;;;15.40;13.33;;;;;;;;;;2611134;54;20412;-80
2023/12/02 06:55:14;;;;;;;18.30;13.57;;;;;;;;;;2610799;54;21398;-80
2023/12/02 06:57:40;;;;;;;17.17;13.30;;;;;;;;;;2609681;47;20454;-81
2023/12/02 07:00:09;;;;;;;15.00;12.27;;;;;;;;;;2610574;47;20423;-81
2023/12/02 07:02:35;;;;;;;17.97;14.03;;;;;;;;;;2610366;47;20410;-81
2023/12/02 07:05:02;;;;;;;17.40;13.27;;;;;;;;;;2609850;54;20450;-80
2023/12/02 07:07:28;;;;;;;15.97;13.23;;;;;;;;;;2610684;47;20411;-79
2023/12/02 07:09:54;;;;;;;17.27;14.27;;;;;;;;;;2610918;54;20503;-80
2023/12/02 07:12:20;;;;;;;15.73;14.10;;;;;;;;;;2611200;54;20995;-81
2023/12/02 07:14:46;;;;;;;17.40;12.83;;;;;;;;;;2610368;39;20825;-79
2023/12/02 07:17:12;;;;;;;15.37;13.17;;;;;;;;;;2610718;39;20825;-80
2023/12/02 07:19:39;;;;;;;15.80;14.20;;;;;;;;;;2611181;54;20391;-80
2023/12/02 07:22:05;;;;;;;19.57;14.20;;;;;;;;;;2608981;46;20423;-80
2023/12/02 07:24:31;;;;;;;15.50;12.03;;;;;;;;;;2610540;54;20387;-86
2023/12/02 07:26:58;;;;;;;18.20;13.70;;;;;;;;;;2612744;54;20463;-85
2023/12/02 07:29:25;;;;;;;18.97;14.30;;;;;;;;;;2611360;54;20398;-84
2023/12/02 07:31:51;;;;;;;17.60;13.97;;;;;;;;;;2612200;54;20518;-85
2023/12/02 07:34:17;;;;;;;13.67;12.13;;;;;;;;;;2611489;54;20419;-85
2023/12/02 07:36:44;;;;;;;13.70;11.50;;;;;;;;;;2613178;54;20419;-86
2023/12/02 07:39:11;;;;;;;15.90;13.40;;;;;;;;;;2612760;47;20427;-85
2023/12/02 07:41:37;;;;;;;17.57;14.37;;;;;;;;;;2612527;54;20431;-85
2023/12/02 07:44:04;;;;;;;15.00;12.27;;;;;;;;;;2613580;54;20984;-73
2023/12/02 07:46:30;;;;;;;16.83;11.93;;;;;;;;;;2609619;47;20406;-73
2023/12/02 07:48:56;;;;;;;17.53;12.90;;;;;;;;;;2610360;39;20793;-73
2023/12/02 07:51:22;;;;;;;16.70;14.30;;;;;;;;;;2608936;54;20423;-73
2023/12/02 07:53:48;;;;;;;19.40;13.00;;;;;;;;;;2610281;39;20865;-73
2023/12/02 07:56:16;;;;;;;18.73;14.17;;;;;;;;;;2610378;54;20444;-74
2023/12/02 07:58:42;;;;;;;17.10;12.83;;;;;;;;;;2609856;54;20382;-73
2023/12/02 08:01:09;;;;;;;15.53;13.17;;;;;;;;;;2610023;54;20494;-73
2023/12/02 08:03:35;;;;;;;18.53;14.43;;;;;;;;;;2610559;54;20414;-73
2023/12/02 08:06:01;;;;;;;16.73;12.57;;;;;;;;;;2612072;54;20972;-74
2023/12/02 08:08:27;;;;;;;13.93;12.53;;;;;;;;;;2610325;54;21198;-74
2023/12/02 08:10:55;;;;;;;16.67;13.73;;;;;;;;;;2611310;54;20423;-75
2023/12/02 08:13:21;;;;;;;15.73;12.80;;;;;;;;;;2611002;39;21133;-73
2023/12/02 08:15:49;;;;;;;19.70;13.60;;;;;;;;;;2610022;54;20397;-72
2023/12/02 08:18:18;;;;;;;17.20;14.30;;;;;;;;;;2610559;47;20431;-73
2023/12/02 08:20:44;;;;;;;17.03;14.10;;;;;;;;;;2611121;47;20445;-74
2023/12/02 08:23:10;;;;;;;16.03;13.33;;;;;;;;;;2609468;54;20427;-73
2023/12/02 08:25:36;;;;;;;18.40;14.40;;;;;;;;;;2609434;54;20387;-72
2023/12/02 08:28:03;;;;;;;17.43;13.70;;;;;;;;;;2610320;54;20445;-73
2023/12/02 08:30:29;;;;;;;21.23;14.40;;;;;;;;;;2607567;54;20388;-72
2023/12/02 08:32:55;;;;;;;14.10;12.70;;;;;;;;;;2610740;54;20419;-73
2023/12/02 08:35:21;;;;;;;17.93;13.43;;;;;;;;;;2613302;47;20417;-83
2023/12/02 08:37:47;;;;;;;21.83;16.03;;;;;;;;;;2614364;54;20570;-84
2023/12/02 08:40:14;;;;;;;17.67;13.63;;;;;;;;;;2615113;54;20600;-84
2023/12/02 08:42:40;;;;;;;20.30;14.23;;;;;;;;;;2614373;54;20423;-83
2023/12/02 08:45:06;;;;;;;21.27;14.40;;;;;;;;;;2614245;47;20453;-83
2023/12/02 08:47:32;;;;;;;17.17;12.60;;;;;;;;;;2613815;54;20400;-83
2023/12/02 08:49:58;;;;;;;17.53;13.93;;;;;;;;;;2614262;54;20466;-84
2023/12/02 08:52:24;;;;;;;16.23;13.27;;;;;;;;;;2612574;47;20527;-83
2023/12/02 08:54:50;;;;;;;15.77;13.60;;;;;;;;;;2613024;54;20978;-83
2023/12/02 08:57:17;;;;;;;18.60;14.00;;;;;;;;;;2613389;39;20758;-83
2023/12/02 08:59:43;;;;;;;18.43;13.87;;;;;;;;;;2612778;54;20418;-83
2023/12/02 09:02:09;;;;;;;15.90;13.80;;;;;;;;;;2611982;54;20443;-84
2023/12/02 09:04:35;;;;;;;20.27;14.67;;;;;;;;;;2613474;54;20437;-82
2023/12/02 09:07:02;;;;;;;17.77;15.37;;;;;;;;;;2612397;54;20459;-83
2023/12/02 09:09:28;;;;;;;20.03;14.80;;;;;;;;;;2613363;54;20550;-83
2023/12/02 09:11:54;;;;;;;19.53;15.67;;;;;;;;;;2613171;39;20775;-84
2023/12/02 09:14:20;;;;;;;20.03;14.53;;;;;;;;;;2611365;54;20399;-84
2023/12/02 09:16:47;;;;;;;15.20;13.37;;;;;;;;;;2611936;54;20402;-82
2023/12/02 09:19:31;;;;;;;21.70;14.90;;;;;;;;;;2613063;54;20439;-82
2023/12/02 09:21:58;;;;;;;18.10;13.13;;;;;;;;;;2612212;54;20405;-83
2023/12/02 09:24:40;;;;;;;17.27;13.83;;;;;;;;;;2613150;54;20510;-83
2023/12/02 09:27:07;;;;;;;21.97;15.90;;;;;;;;;;2612746;47;21367;-82
2023/12/02 09:29:38;;;;;;;17.13;14.00;;;;;;;;;;2612024;54;20414;-83
2023/12/02 09:32:23;;;;;;;21.10;14.07;;;;;;;;;;2611895;47;20415;-81
2023/12/02 09:34:57;;;;;;;19.00;15.00;;;;;;;;;;2609985;54;20957;-82
2023/12/02 09:37:42;;;;;;;21.33;15.57;;;;;;;;;;2613034;39;21155;-83
2023/12/02 09:40:23;;;;;;;20.20;15.63;;;;;;;;;;2610794;54;20470;-82
2023/12/02 09:42:52;;;;;;;15.13;13.53;;;;;;;;;;2610355;54;20407;-82
2023/12/02 09:45:21;;;;;;;17.57;15.20;;;;;;;;;;2610477;54;20418;-76
2023/12/02 09:47:53;;;;;;;18.90;14.30;;;;;;;;;;2609979;54;20428;-77
2023/12/02 09:50:21;;;;;;;20.63;15.40;;;;;;;;;;2609832;54;20445;-79
2023/12/02 09:53:10;;;;;;;18.57;15.23;;;;;;;;;;2610444;54;20411;-80
2023/12/02 09:55:36;;;;;;;22.13;18.23;;;;;;;;;;2610773;54;20420;-79
2023/12/02 09:58:02;;;;;;;16.40;14.37;;;;;;;;;;2609739;54;20417;-78
2023/12/02 10:00:36;;;;;;;18.07;16.17;;;;;;;;;;2611925;54;20431;-79
2023/12/02 10:03:02;;;;;;;17.23;15.50;;;;;;;;;;2609558;54;20913;-79
2023/12/02 10:05:32;;;;;;;18.83;14.93;;;;;;;;;;2609746;47;20428;-76
2023/12/02 10:08:05;;;;;;;18.60;16.70;;;;;;;;;;2610985;54;20446;-75
2023/12/02 10:10:46;;;;;;;19.93;16.53;;;;;;;;;;2610333;54;20436;-75
2023/12/02 10:13:12;;;;;;;18.13;16.13;;;;;;;;;;2609356;54;20418;-75
2023/12/02 10:15:40;;;;;;;20.20;15.90;;;;;;;;;;2609367;54;20485;-75
2023/12/02 10:18:13;;;;;;;18.57;16.77;;;;;;;;;;2610533;54;20418;-75
2023/12/02 10:20:41;;;;;;;18.97;16.97;;;;;;;;;;2608752;54;21592;-76
2023/12/02 10:23:13;;;;;;;17.60;16.13;;;;;;;;;;2610521;47;20424;-76
2023/12/02 10:25:48;;;;;;;18.90;17.00;;;;;;;;;;2608141;54;20391;-76
2023/12/02 10:28:24;;;;;;;18.37;16.47;;;;;;;;;;2609891;47;20424;-76
2023/12/02 10:30:56;;;;;;;18.80;16.80;;;;;;;;;;2610077;47;20549;-77
2023/12/02 10:33:27;;;;;;;18.90;16.03;;;;;;;;;;2610048;54;20438;-76
2023/12/02 10:35:56;;;;;;;17.03;15.20;;;;;;;;;;2608878;54;20398;-77
2023/12/02 10:38:41;;;;;;;18.43;15.43;;;;;;;;;;2609410;39;20814;-76
2023/12/02 10:41:10;;;;;;;18.03;15.83;;;;;;;;;;2610026;54;20432;-75
2023/12/02 10:43:41;;;;;;;15.90;14.10;;;;;;;;;;2609880;54;20464;-75
2023/12/02 10:46:08;;;;;;;16.30;14.70;;;;;;;;;;2610269;47;20524;-75
2023/12/02 10:48:39;;;;;;;18.27;15.93;;;;;;;;;;2610578;39;20923;-76
2023/12/02 10:51:07;;;;;;;18.57;16.23;;;;;;;;;;2609963;54;20439;-76
2023/12/02 10:53:35;;;;;;;16.87;15.17;;;;;;;;;;2609361;54;20430;-74
2023/12/02 10:56:05;;;;;;;19.30;17.33;;;;;;;;;;2608695;54;20419;-76
2023/12/02 10:58:31;;;;;;;18.17;16.23;;;;;;;;;;2609944;54;20504;-76
2023/12/02 11:01:06;;;;;;;17.10;15.37;;;;;;;;;;2609468;54;20497;-75
2023/12/02 11:03:36;;;;;;;18.53;16.70;;;;;;;;;;2609353;47;20417;-75
2023/12/02 11:06:08;;;;;;;16.63;14.63;;;;;;;;;;2608813;54;20438;-75
2023/12/02 11:08:53;;;;;;;18.30;16.30;;;;;;;;;;2609306;54;20406;-75
2023/12/02 11:11:28;;;;;;;17.40;15.70;;;;;;;;;;2609793;54;20377;-76
2023/12/02 11:13:56;;;;;;;19.70;17.80;;;;;;;;;;2609546;54;20434;-75
2023/12/02 11:16:26;;;;;;;19.57;17.63;;;;;;;;;;2610037;54;20428;-75
2023/12/02 11:18:55;;;;;;;18.33;16.33;;;;;;;;;;2608932;39;21311;-74
2023/12/02 11:21:44;;;;;;;19.23;16.37;;;;;;;;;;2610693;54;20415;-75
2023/12/02 11:24:27;;;;;;;19.07;16.17;;;;;;;;;;2609510;54;20435;-74
2023/12/02 11:27:12;;;;;;;21.40;16.47;;;;;;;;;;2609559;54;20427;-73
2023/12/02 11:29:44;;;;;;;19.97;17.07;;;;;;;;;;2610148;39;21554;-73
2023/12/02 11:32:24;;;;;;;20.37;17.20;;;;;;;;;;2610084;54;20359;-73
2023/12/02 11:34:59;;;;;;;18.93;16.73;;;;;;;;;;2608271;54;20462;-74
2023/12/02 11:37:28;;;;;;;19.77;15.80;;;;;;;;;;2609472;54;20435;-74
2023/12/02 11:39:57;;;;;;;18.80;17.00;;;;;;;;;;2609959;54;20455;-73
2023/12/02 11:42:25;;;;;;;19.10;17.00;;;;;;;;;;2609303;54;20415;-75
2023/12/02 11:44:57;;;;;;;19.20;17.17;;;;;;;;;;2608808;47;20438;-73
2023/12/02 11:47:48;;;;;;;18.93;16.97;;;;;;;;;;2609637;54;20430;-73
2023/12/02 11:50:43;;;;;;;20.07;15.90;;;;;;;;;;2610602;47;20438;-73
2023/12/02 11:53:24;;;;;;;19.60;16.17;;;;;;;;;;2607659;54;20480;-74
2023/12/02 11:55:54;;;;;;;17.70;15.33;;;;;;;;;;2606391;47;20443;-73
2023/12/02 11:58:23;;;;;;;17.67;16.07;;;;;;;;;;2607668;54;21567;-73
2023/12/02 12:00:49;;;;;;;16.50;14.80;;;;;;;;;;2608715;54;20420;-73
2023/12/02 12:03:30;;;;;;;15.90;13.73;;;;;;;;;;2607670;54;20438;-72
2023/12/02 12:05:57;;;;;;;18.30;16.30;;;;;;;;;;2609959;54;21122;-73
2023/12/02 12:08:26;;;;;;;19.80;16.50;;;;;;;;;;2609240;47;20420;-73
2023/12/02 12:10:55;;;;;;;20.63;16.03;;;;;;;;;;2609486;54;20499;-72
2023/12/02 12:13:22;;;;;;;21.63;16.93;;;;;;;;;;2608790;47;20420;-74
2023/12/02 12:15:48;;;;;;;25.30;21.10;;;;;;;;;;2609543;54;20400;-74
2023/12/02 12:18:17;;;;;;;34.23;20.83;;;;;;;;;;2608937;54;20409;-74
2023/12/02 12:20:44;;;;;;;33.43;19.93;;;;;;;;;;2609174;54;20522;-75
2023/12/02 12:23:11;;;;;;;29.33;21.30;;;;;;;;;;2609871;54;20410;-75
2023/12/02 12:25:37;;;;;;;30.80;22.13;;;;;;;;;;2609328;54;20456;-74
2023/12/02 12:28:04;;;;;;;26.03;20.77;;;;;;;;;;2609875;39;20863;-74
2023/12/02 12:30:46;;;;;;;31.10;21.63;;;;;;;;;;2611776;54;20413;-74
2023/12/02 12:33:16;;;;;;;27.00;20.47;;;;;;;;;;2609147;46;20406;-74
2023/12/02 12:35:42;;;;;;;30.13;19.90;;;;;;;;;;2610075;54;20538;-74
2023/12/02 12:38:12;;;;;;;28.13;19.50;;;;;;;;;;2609406;47;20533;-74
2023/12/02 12:40:39;;;;;;;31.43;19.97;;;;;;;;;;2609071;47;20452;-74
2023/12/02 12:43:09;;;;;;;34.97;20.60;;;;;;;;;;2610832;54;20535;-75
2023/12/02 12:45:35;;;;;;;30.30;20.47;;;;;;;;;;2610599;54;20407;-74
2023/12/02 12:48:01;;;;;;;35.03;22.27;;;;;;;;;;2610403;54;20407;-75
2023/12/02 12:50:34;;;;;;;31.50;20.40;;;;;;;;;;2610594;54;20399;-75
2023/12/02 12:53:09;;;;;;;28.57;19.57;;;;;;;;;;2609871;47;20531;-75
2023/12/02 12:55:37;;;;;;;24.20;16.03;;;;;;;;;;2610109;54;20988;-74
2023/12/02 12:58:24;;;;;;;21.90;18.40;;;;;;;;;;2611076;54;20390;-73
2023/12/02 13:00:50;;;;;;;32.13;20.00;;;;;;;;;;2610215;54;20481;-75
2023/12/02 13:03:34;;;;;;;35.47;20.63;;;;;;;;;;2610588;54;20439;-75
2023/12/02 13:06:07;;;;;;;23.63;17.70;;;;;;;;;;2610038;54;20411;-75
2023/12/02 13:08:34;;;;;;;20.03;17.17;;;;;;;;;;2610720;54;20541;-74
2023/12/02 13:11:04;;;;;;;27.43;17.93;;;;;;;;;;2610829;39;20811;-75
2023/12/02 13:13:31;;;;;;;24.43;18.53;;;;;;;;;;2610725;54;21739;-73
2023/12/02 13:15:59;;;;;;;28.87;18.60;;;;;;;;;;2610446;54;20427;-75
2023/12/02 13:18:28;;;;;;;27.20;18.70;;;;;;;;;;2610522;54;20450;-74
2023/12/02 13:20:55;;;;;;;16.90;13.90;;;;;;;;;;2610107;54;20403;-74
2023/12/02 13:23:23;;;;;;;26.87;19.20;;;;;;;;;;2609720;54;20437;-74
2023/12/02 13:25:49;;;;;;;25.57;18.73;;;;;;;;;;2610424;54;20434;-74
2023/12/02 13:28:27;;;;;;;25.80;19.63;;;;;;;;;;2610897;54;20431;-74
2023/12/02 13:30:55;;;;;;;31.27;19.03;;;;;;;;;;2613034;54;20402;-74
2023/12/02 13:33:22;;;;;;;27.73;20.20;;;;;;;;;;2611132;47;20425;-74
2023/12/02 13:35:56;;;;;;;24.67;19.87;;;;;;;;;;2610180;47;21558;-75
2023/12/02 13:38:35;;;;;;;31.90;18.60;;;;;;;;;;2609926;54;20406;-74
2023/12/02 13:41:13;;;;;;;32.50;17.90;;;;;;;;;;2610257;49;20547;-74
2023/12/02 13:43:51;;;;;;;20.03;16.40;;;;;;;;;;2609080;54;20533;-74
2023/12/02 13:46:18;;;;;;;24.87;16.73;;;;;;;;;;2609397;54;20427;-72
2023/12/02 13:49:03;;;;;;;22.47;17.87;;;;;;;;;;2609932;47;20434;-73
2023/12/02 13:51:36;;;;;;;19.17;15.80;;;;;;;;;;2609544;54;20393;-72
2023/12/02 13:54:04;;;;;;;23.80;17.87;;;;;;;;;;2609902;54;20423;-72
2023/12/02 13:56:38;;;;;;;24.50;17.70;;;;;;;;;;2610494;54;20402;-73
2023/12/02 13:59:15;;;;;;;24.07;15.40;;;;;;;;;;2610989;39;20794;-73
2023/12/02 14:01:47;;;;;;;20.50;14.47;;;;;;;;;;2608420;54;20415;-73
2023/12/02 14:04:29;;;;;;;23.80;17.60;;;;;;;;;;2609695;54;20427;-72
2023/12/02 14:07:16;;;;;;;16.27;13.70;;;;;;;;;;2610822;46;20444;-73
2023/12/02 14:09:42;;;;;;;23.07;15.27;;;;;;;;;;2608889;54;20502;-73
2023/12/02 14:12:17;;;;;;;24.60;15.97;;;;;;;;;;2610147;54;20406;-74
2023/12/02 14:15:02;;;;;;;23.13;15.80;;;;;;;;;;2626798;36;20960;-73
2023/12/02 14:17:43;;;;;;;21.80;16.70;;;;;;;;;;2609292;54;20392;-73
2023/12/02 14:20:24;;;;;;;23.97;17.47;;;;;;;;;;2609462;54;20429;-72
2023/12/02 14:23:10;;;;;;;25.90;15.50;;;;;;;;;;2607983;47;20414;-72